Date,TemperatureHighF,TemperatureAvgF,TemperatureLowF,DewpointHighF,DewpointAvgF,DewpointLowF,HumidityHigh,HumidityAvg,HumidityLow,PressureMaxIn,PressureMinIn,WindSpeedMaxMPH,WindSpeedAvgMPH,GustSpeedMaxMPH,PrecipitationSumIn
2012-1-1,78.4,61.1,47.7,52.7,41.6,32.6,98,54,24,30.19,30.07,3,0,4,0.00
2012-1-2,77.5,59.5,44.6,53.6,46.2,37.3,98,66,24,30.22,30.13,4,0,5,0.00
2012-1-3,77.4,62.1,49.5,49.9,42.1,34.0,84,51,28,30.22,30.13,3,0,4,0.00
2012-1-4,82.9,65.6,51.8,48.3,37.6,28.3,66,39,20,30.24,30.16,4,0,5,0.00
2012-1-5,81.7,66.5,57.4,44.7,30.3,24.6,32,26,20,30.16,29.98,4,0,5,0.00
2012-1-6,72.0,58.7,50.9,53.6,39.8,26.8,98,55,27,30.04,29.95,5,0,8,0.00
2012-1-7,62.2,53.1,45.9,52.5,49.6,45.3,98,89,64,30.04,29.95,4,0,6,0.00
2012-1-8,72.3,58.6,43.2,45.2,32.2,23.0,98,42,16,30.16,30.04,7,1,11,0.00
2012-1-9,74.3,58.1,47.1,40.2,32.6,25.4,60,40,22,30.19,30.13,4,0,6,0.00
2012-1-10,69.1,56.2,45.9,41.0,34.4,29.0,74,45,27,30.19,30.01,4,0,5,0.00
2012-1-11,68.9,57.5,0.0,51.7,44.1,32.8,88,62,35,30.07,29.95,3,0,5,0.00
2012-1-12,71.4,59.4,51.1,49.7,38.3,20.1,91,51,26,30.07,29.98,4,0,6,0.00
2012-1-13,73.8,58.7,46.6,34.9,21.5,14.8,44,24,16,30.16,30.04,4,0,5,0.00
2012-1-14,68.5,55.7,46.8,48.1,29.6,14.5,80,41,22,30.19,30.10,2,0,4,0.00
2012-1-15,66.4,55.0,46.6,55.7,40.0,23.2,98,62,29,30.13,30.07,5,0,8,0.00
2012-1-16,57.7,50.8,44.1,54.1,45.0,38.3,98,82,57,30.24,30.07,5,0,8,0.00
2012-1-17,57.9,48.1,39.7,44.2,40.4,36.5,97,77,47,30.30,30.22,4,1,6,0.00
2012-1-18,63.1,49.8,0.0,49.2,43.4,37.1,98,81,40,30.30,30.16,4,0,6,0.00
2012-1-19,63.1,50.6,41.2,51.4,46.2,40.7,98,87,53,30.16,30.04,4,0,7,0.00
2012-1-20,64.2,54.0,46.9,53.3,48.7,46.2,98,84,55,30.13,30.04,4,0,6,0.00
2012-1-21,48.4,45.7,0.0,50.7,46.0,45.0,98,95,95,30.10,30.04,0,0,4,0.00
2012-1-22,63.0,51.6,43.9,51.7,47.7,43.4,98,88,57,30.19,30.10,4,0,6,0.00
2012-1-23,57.7,51.0,47.3,57.2,50.3,46.8,98,97,89,30.13,29.92,8,1,13,0.00
2012-1-24,64.8,53.1,42.1,57.8,47.1,40.8,98,82,52,30.22,30.04,4,0,8,0.00
2012-1-25,78.8,59.5,0.0,46.7,40.8,34.8,86,53,24,30.22,30.10,5,0,6,0.00
2012-1-26,77.9,62.7,0.0,55.3,43.9,38.6,92,53,32,30.13,29.98,6,1,8,0.00
2012-1-27,78.4,64.5,48.4,49.9,36.3,24.0,76,40,22,30.07,29.95,6,1,9,0.00
2012-1-28,76.5,63.6,52.7,33.2,23.3,14.6,28,22,15,30.19,30.07,4,1,8,0.00
2012-1-29,78.8,62.5,48.2,33.9,21.7,11.7,30,21,15,30.19,30.07,4,0,6,0.00
2012-1-30,70.0,56.7,46.8,54.3,37.2,19.7,98,54,24,30.07,29.98,6,0,9,0.00
2012-1-31,61.9,52.7,47.1,52.3,48.4,45.0,98,87,55,30.16,29.98,4,0,6,0.00
2012-2-1,67.3,53.9,46.0,54.0,48.8,44.0,98,85,47,30.22,30.07,4,0,6,0.00
2012-2-2,64.9,52.3,43.7,54.2,47.4,39.7,98,86,41,30.10,29.92,4,0,6,0.00
2012-2-3,70.3,56.5,44.4,46.8,32.9,19.9,98,47,23,30.04,29.95,6,0,8,0.00
2012-2-4,72.9,58.9,47.7,32.4,24.5,18.8,34,27,22,30.07,29.98,4,0,6,0.00
2012-2-5,73.9,59.1,47.7,39.6,28.7,23.6,67,32,22,30.04,29.98,4,0,6,0.00
2012-2-6,71.4,59.0,47.1,45.0,36.2,31.1,81,46,25,30.04,29.89,3,0,4,0.00
2012-2-7,65.1,57.0,52.3,53.7,45.1,30.5,95,67,34,30.01,29.89,10,1,15,0.00
2012-2-8,74.8,61.4,47.1,48.4,40.4,33.6,91,51,25,30.13,29.98,4,1,8,0.00
2012-2-9,81.9,65.6,54.5,44.8,35.3,30.4,65,34,22,30.19,30.10,5,1,9,0.00
2012-2-10,71.4,57.4,0.0,54.7,47.4,34.2,98,71,36,30.16,30.07,5,0,8,0.00
2012-2-11,64.0,55.6,51.3,58.6,51.2,46.0,98,87,54,30.07,29.95,4,0,8,0.00
2012-2-12,66.0,55.1,47.7,52.7,48.8,43.4,98,81,50,30.04,29.92,4,0,7,0.00
2012-2-13,62.4,54.3,49.1,53.5,47.3,37.0,98,78,57,30.04,29.92,8,2,12,0.00
2012-2-14,62.2,51.3,42.4,50.3,42.9,38.9,98,75,47,30.10,29.89,4,1,8,0.00
2012-2-15,60.6,47.6,0.0,51.9,44.5,40.3,98,89,56,30.10,29.92,6,1,10,0.00
2012-2-16,67.1,55.3,39.7,42.1,31.6,24.6,98,47,25,30.10,29.95,10,3,13,0.00
2012-2-17,72.9,59.9,46.8,48.9,34.3,21.5,96,45,22,30.16,30.04,8,2,12,0.00
2012-2-18,63.7,54.3,46.2,52.4,47.1,41.5,98,78,53,30.16,30.04,5,1,9,0.00
2012-2-19,66.0,53.5,44.8,50.5,46.8,43.4,98,80,47,30.10,29.98,5,0,7,0.00
2012-2-20,63.9,52.4,43.9,49.5,46.5,43.4,98,83,50,30.10,30.04,7,0,8,0.00
2012-2-21,73.6,57.5,42.3,52.6,38.3,27.5,98,57,23,30.16,30.04,4,1,7,0.00
2012-2-22,78.6,62.2,47.5,41.3,36.2,32.0,64,40,22,30.13,29.92,4,1,6,0.00
2012-2-23,76.3,61.0,47.8,54.5,42.3,32.1,98,55,24,29.95,29.80,4,0,6,0.00
2012-2-24,67.6,57.0,50.5,54.5,52.5,50.0,98,86,58,30.16,29.92,4,0,7,0.00
2012-2-25,69.1,58.0,51.4,52.7,50.5,47.8,95,78,48,30.16,29.95,4,1,6,0.00
2012-2-26,65.3,56.1,51.3,49.2,48.0,45.2,90,75,52,29.95,29.89,5,1,8,0.00
2012-2-27,61.3,51.1,43.9,49.4,44.5,36.5,98,80,48,29.98,29.83,8,2,13,0.00
2012-2-28,63.0,49.6,41.5,41.2,37.5,32.9,91,65,38,30.27,29.98,6,1,11,0.00
2012-2-29,61.7,50.7,38.8,52.1,43.6,37.5,97,79,47,30.27,30.16,6,1,8,0.00
2012-3-1,63.5,53.3,46.0,51.6,45.8,40.9,98,78,47,30.19,30.04,5,1,8,0.00
2012-3-2,68.5,55.9,42.1,49.8,37.2,13.3,98,57,17,30.24,30.04,4,1,7,0.00
2012-3-3,78.8,61.4,44.8,37.0,25.0,15.0,42,26,15,30.24,30.13,4,0,6,0.00
2012-3-4,85.3,68.5,52.3,39.8,31.5,23.3,39,26,16,30.13,29.98,4,0,6,0.00
2012-3-5,80.1,63.9,52.2,54.7,38.8,29.9,98,45,20,30.04,29.95,5,0,7,0.00
2012-3-6,62.8,54.3,0.0,54.8,47.2,38.8,98,77,58,29.95,29.80,5,1,8,0.00
2012-3-7,62.4,50.8,39.6,42.1,29.3,16.3,97,50,19,30.13,29.80,7,1,10,0.00
2012-3-8,76.3,58.3,39.0,38.7,29.6,20.0,86,40,15,30.24,30.13,5,1,8,0.00
2012-3-9,84.6,66.3,51.3,37.0,26.4,18.4,34,23,16,30.24,29.98,6,1,9,0.00
2012-3-10,74.8,59.2,48.4,53.5,40.0,21.3,98,55,23,30.04,29.95,6,1,9,0.00
2012-3-11,64.8,55.8,49.3,50.2,47.3,44.3,96,75,49,30.07,29.92,5,1,10,0.00
2012-3-12,67.3,56.1,49.1,51.3,47.1,43.6,97,73,44,30.07,29.98,4,1,6,0.00
2012-3-13,68.4,56.0,47.7,49.1,47.2,44.6,98,74,45,30.10,30.01,6,1,8,0.00
2012-3-14,68.5,56.3,0.0,52.2,49.0,45.5,98,78,49,30.16,30.07,5,2,10,0.00
2012-3-15,66.9,56.4,50.2,53.0,51.1,49.6,98,84,56,30.16,30.07,5,1,6,0.00
2012-3-16,67.1,57.4,53.2,54.6,52.1,49.6,98,84,55,30.10,29.95,4,0,6,0.00
2012-3-17,56.1,51.7,45.9,55.4,49.7,38.7,98,93,74,29.98,29.74,7,1,12,0.00
2012-3-18,57.6,48.9,42.3,45.0,38.9,32.8,98,71,47,29.98,29.68,10,3,17,0.00
2012-3-19,63.9,51.9,44.8,43.9,39.4,35.3,85,64,38,30.04,29.89,7,2,10,0.00
2012-3-20,68.4,54.7,41.2,46.4,39.1,34.2,98,61,33,30.13,30.04,4,0,6,0.00
2012-3-21,76.5,60.6,45.1,47.2,37.9,27.8,91,49,24,30.13,29.95,5,1,7,0.00
2012-3-22,73.2,57.9,46.8,52.9,45.0,32.1,98,66,34,30.01,29.89,4,1,6,0.00
2012-3-23,66.7,55.4,48.7,52.9,50.6,48.2,98,85,54,30.07,29.95,5,1,8,0.00
2012-3-24,67.8,56.6,49.8,52.1,49.8,45.9,98,81,48,30.01,29.92,4,0,6,0.00
2012-3-25,66.6,52.5,46.2,55.3,48.7,41.1,98,89,44,29.95,29.83,9,2,17,0.00
2012-3-26,66.9,55.0,47.7,56.8,47.9,43.5,98,80,47,30.13,29.95,6,1,9,0.00
2012-3-27,70.0,54.3,43.5,52.2,45.1,37.6,98,75,38,30.10,30.04,7,1,9,0.00
2012-3-28,70.5,56.4,43.3,54.8,48.6,42.6,98,79,42,30.13,30.01,5,1,7,0.00
2012-3-29,67.8,57.9,53.8,56.6,54.4,52.2,98,90,63,30.07,29.98,4,0,6,0.00
2012-3-31,66.4,58.3,50.4,55.2,52.0,49.7,98,81,57,30.07,29.98,6,1,9,0.00
2012-4-1,68.7,56.3,44.2,50.7,42.8,35.4,98,64,35,30.04,29.95,7,2,11,0.00
2012-4-2,72.9,58.8,43.9,49.0,38.2,27.6,97,52,27,30.04,29.92,4,1,8,0.00
2012-4-3,77.4,62.0,47.5,43.8,37.2,29.8,66,42,23,30.01,29.92,4,0,6,0.00
2012-4-4,75.0,59.4,48.6,56.2,47.2,36.7,98,68,35,30.01,29.89,4,0,6,0.00
2012-4-5,71.4,56.9,47.5,52.6,47.5,34.0,98,74,38,30.01,29.89,6,1,9,0.00
2012-4-6,71.2,57.8,42.4,47.9,40.5,32.3,96,58,33,30.10,29.98,6,1,9,0.00
2012-4-7,85.1,65.3,48.7,43.5,32.2,20.6,66,34,14,30.04,29.98,4,0,6,0.00
2012-4-8,83.3,63.7,48.9,40.6,32.6,21.3,66,34,19,30.04,29.98,4,0,6,0.00
2012-4-9,81.0,60.9,47.1,52.3,41.0,28.9,98,55,22,30.01,29.92,4,1,7,0.00
2012-4-10,70.7,57.0,47.1,53.2,48.3,44.5,98,75,41,29.98,29.89,6,1,9,0.00
2012-4-11,71.1,57.8,50.4,57.1,51.0,43.6,98,81,44,30.13,29.86,5,1,8,0.00
2012-4-12,68.2,55.8,0.0,51.0,48.8,44.5,98,79,43,30.13,30.07,4,1,8,0.00
2012-4-13,56.1,51.4,0.0,53.5,48.4,40.8,98,89,70,30.07,29.23,8,2,13,0.43
2012-4-14,68.4,54.5,46.8,46.6,42.3,36.0,96,66,35,29.50,29.23,8,3,14,0.00
2012-4-15,75.2,56.4,43.2,50.8,44.9,41.4,98,69,32,29.59,29.50,5,1,7,0.00
2012-4-16,88.2,64.0,46.8,53.6,45.6,39.8,95,57,24,29.59,29.47,4,1,6,0.00
2012-4-17,88.2,66.0,50.4,64.7,46.8,36.1,98,58,20,29.53,29.38,6,1,8,0.00
2012-4-18,79.2,62.9,51.1,60.8,52.3,47.2,98,73,37,29.44,29.29,4,0,6,0.00
2012-4-19,79.0,62.2,54.9,57.6,55.1,50.1,98,81,39,29.41,29.35,4,0,6,0.00
2012-4-20,80.4,64.4,54.5,59.9,56.6,53.3,98,80,42,29.41,29.35,4,0,6,0.00
2012-4-21,79.7,64.2,57.9,60.4,57.8,54.4,98,82,49,29.41,29.32,4,0,7,0.00
2012-4-22,70.2,60.8,56.8,60.4,57.2,55.3,98,89,63,29.41,29.35,3,0,5,0.00
2012-4-23,68.5,60.6,55.8,60.4,54.4,50.6,98,81,54,29.50,29.41,4,0,5,0.00
2012-4-24,76.3,62.6,50.2,64.2,51.2,48.1,98,70,41,29.50,29.38,7,1,9,0.00
2012-4-25,84.0,64.9,0.0,59.0,54.0,47.7,98,71,31,29.44,29.23,7,1,11,0.04
2012-4-26,78.1,62.6,55.9,60.6,55.8,51.0,98,81,41,29.50,29.29,7,1,10,0.20
2012-4-27,81.0,63.3,52.9,69.2,52.0,45.0,98,71,31,29.53,29.35,4,1,7,0.00
2012-4-28,87.1,65.8,50.0,65.0,52.2,45.7,98,67,29,29.38,29.23,4,1,6,0.00
2012-4-29,77.4,64.1,56.5,60.8,56.6,53.7,98,79,48,29.38,29.23,4,1,6,0.00
2012-4-30,72.9,63.2,58.3,58.9,57.3,54.7,98,82,55,29.44,29.35,4,0,6,0.00
2012-5-1,70.2,61.3,57.4,60.3,55.9,52.7,98,84,58,29.41,29.32,3,0,6,0.00
2012-5-2,73.6,62.0,55.6,59.9,54.3,50.4,98,78,47,29.41,29.32,7,1,8,0.00
2012-5-3,80.6,61.9,53.1,61.7,55.2,51.1,98,81,38,29.50,29.41,6,1,8,0.08
2012-5-4,80.6,61.2,49.8,60.8,53.5,49.1,98,79,37,29.53,29.41,5,1,6,0.00
2012-5-5,79.9,63.5,52.3,64.0,54.7,51.6,98,77,41,29.47,29.38,4,1,6,0.00
2012-5-6,78.6,62.8,54.7,57.2,54.1,49.9,98,76,38,29.44,29.35,6,1,8,0.00
2012-5-7,85.1,64.6,55.8,59.5,55.3,52.0,98,76,33,29.41,29.32,6,1,8,0.00
2012-5-8,86.2,66.8,56.7,58.9,56.7,53.1,98,74,33,29.35,29.29,4,0,6,0.00
2012-5-9,86.0,66.6,52.7,71.9,57.2,52.2,98,76,34,29.35,29.23,5,1,8,0.00
2012-5-10,78.6,63.6,0.0,58.7,54.9,50.0,94,74,41,29.38,29.32,7,2,10,0.00
2012-5-11,81.9,66.6,0.0,57.8,53.4,48.6,89,65,34,29.47,29.32,4,1,8,0.00
2012-5-12,87.3,66.9,55.4,57.8,55.3,52.3,98,70,32,29.53,29.41,5,1,9,0.00
2012-5-13,83.8,64.9,55.6,58.3,55.8,52.1,98,76,36,29.53,29.44,7,1,8,0.00
2012-5-14,88.9,65.6,53.1,62.0,53.8,45.6,98,72,26,29.50,29.35,5,1,8,0.00
2012-5-15,86.7,64.9,52.0,59.8,51.8,42.0,98,68,29,29.41,29.32,4,1,6,0.00
2012-5-16,89.8,69.0,54.1,69.1,55.5,48.8,98,68,29,29.38,29.26,3,0,6,0.00
2012-5-17,83.8,67.1,59.2,60.8,57.5,53.2,98,75,37,29.32,29.26,7,1,9,0.00
2012-5-18,83.5,66.9,58.5,57.3,53.6,48.4,90,66,32,29.35,29.29,5,1,8,0.00
2012-5-19,87.3,67.2,59.2,58.8,55.8,51.3,93,70,31,29.38,29.26,6,1,8,0.00
2012-5-20,89.1,68.6,59.7,60.6,58.2,54.3,95,74,32,29.41,29.32,5,1,8,0.00
2012-5-21,90.3,68.9,59.4,63.2,59.1,54.2,98,76,31,29.41,29.32,4,0,8,0.00
2012-5-22,86.7,67.6,58.8,62.9,58.3,51.5,98,77,33,29.35,29.23,5,1,6,0.00
2012-5-23,83.1,66.6,60.1,59.6,56.9,51.8,94,74,37,29.29,29.18,8,2,10,0.00
2012-5-24,71.8,63.7,58.6,62.3,55.9,54.1,98,77,56,29.21,29.09,7,1,9,0.00
2012-5-25,78.3,61.9,54.7,57.7,52.5,45.6,96,73,37,29.29,29.15,8,2,13,0.00
2012-5-26,80.4,62.7,52.3,51.3,46.9,40.2,92,60,27,29.50,29.26,5,1,7,0.00
2012-5-27,85.5,65.3,48.9,57.1,51.0,46.4,97,66,29,29.50,29.35,6,1,8,0.00
2012-5-28,93.9,68.5,54.0,62.1,55.0,49.2,98,69,25,29.41,29.32,4,0,7,0.00
2012-5-29,87.6,69.2,57.4,63.8,56.1,48.6,98,70,31,29.44,29.29,5,1,9,0.00
2012-5-30,82.6,67.5,57.0,59.5,55.9,50.6,98,71,35,29.47,29.38,4,1,7,0.00
2012-5-31,87.3,69.8,59.4,72.8,58.4,52.8,98,72,33,29.38,29.26,3,0,6,0.00
2012-6-1,85.5,67.9,59.7,60.6,58.2,53.7,98,75,38,29.32,29.23,5,1,8,0.00
2012-6-2,84.0,66.4,59.4,58.6,56.8,53.4,93,74,38,29.32,29.23,5,1,7,0.00
2012-6-3,82.4,66.7,59.9,58.3,56.7,52.9,91,73,39,29.38,29.29,4,1,7,0.00
2012-6-4,77.9,64.8,60.6,62.4,57.9,55.1,93,79,48,29.44,29.32,5,0,8,0.00
2012-6-5,85.3,67.9,55.9,64.7,54.0,43.1,97,65,31,29.44,29.35,8,1,10,0.00
2012-6-6,90.0,68.7,52.9,59.4,51.6,40.2,98,62,22,29.35,29.23,6,1,8,0.00
2012-6-7,86.2,69.4,54.5,69.2,55.7,51.0,98,68,32,29.32,29.21,5,1,6,0.00
2012-6-8,85.3,66.9,56.3,63.7,56.2,51.5,98,73,35,29.32,29.23,6,1,9,0.00
2012-6-9,81.7,65.8,57.4,57.1,54.8,49.8,91,71,35,29.29,29.21,5,1,9,0.00
2012-6-10,83.7,66.2,59.2,55.6,54.0,49.5,85,68,34,29.35,29.21,5,1,7,0.00
2012-6-11,84.6,67.3,57.2,60.2,56.2,52.9,94,71,35,29.44,29.32,4,1,6,0.00
2012-6-12,88.5,70.2,60.1,61.2,57.9,52.0,93,70,31,29.44,29.32,5,1,6,0.00
2012-6-13,81.0,65.9,0.0,60.0,56.8,52.2,95,74,40,29.35,29.23,3,0,5,0.00
2012-6-14,82.8,66.1,58.6,56.7,54.6,50.2,92,70,36,29.29,29.21,5,1,8,0.00
2012-6-15,75.2,63.8,59.5,59.8,55.8,54.6,87,76,51,29.29,29.21,4,0,5,0.00
2012-6-16,86.9,69.2,61.0,60.4,57.2,53.2,93,69,34,29.32,29.23,5,1,6,0.00
2012-6-17,96.3,72.2,57.9,66.8,59.3,54.8,98,70,28,29.38,29.26,5,1,6,0.00
2012-6-18,92.8,70.9,57.9,61.8,58.6,52.3,98,71,28,29.38,29.26,5,1,6,0.00
2012-6-19,88.5,68.4,57.4,61.0,56.6,51.2,98,71,30,29.35,29.23,5,0,6,0.00
2012-6-20,85.5,68.5,57.9,58.9,55.3,50.7,96,67,32,29.32,29.26,4,1,6,0.00
2012-6-21,88.3,68.6,57.6,60.1,57.3,52.8,98,72,31,29.38,29.29,4,0,8,0.00
2012-6-22,90.5,69.9,57.9,60.4,56.4,51.1,98,68,29,29.38,29.21,5,1,6,0.00
2012-6-23,91.2,69.7,58.1,59.2,55.9,49.5,97,67,26,29.29,29.21,4,1,7,0.00
2012-6-24,94.5,71.1,56.8,61.8,54.7,47.2,98,63,21,29.41,29.29,4,1,8,0.00
2012-6-25,93.0,69.6,54.5,65.1,52.1,43.9,98,61,21,29.47,29.32,5,1,8,0.00
2012-6-26,97.2,72.4,52.7,66.9,50.3,40.8,96,53,17,29.38,29.23,5,1,6,0.00
2012-6-27,93.6,72.6,55.6,72.4,55.7,47.0,98,63,25,29.35,29.21,4,0,6,0.00
2012-6-28,94.8,72.3,56.3,71.8,57.0,47.6,98,66,25,29.47,29.32,5,1,6,0.00
2012-6-29,100.8,74.0,57.7,73.0,56.4,44.8,98,63,16,29.50,29.35,4,0,6,0.00
2012-6-30,92.5,70.8,58.1,62.3,57.1,50.0,98,68,27,29.38,29.29,4,0,6,0.00
2012-7-1,88.7,71.5,58.8,62.2,58.1,52.7,98,68,31,29.35,29.26,4,1,6,0.00
2012-7-2,86.4,69.2,60.4,62.2,59.0,54.2,95,73,37,29.32,29.26,5,1,7,0.00
2012-7-3,84.7,67.9,61.3,60.2,58.2,54.6,92,74,37,29.35,29.29,5,1,8,0.00
2012-7-4,77.5,65.6,61.3,62.1,58.9,56.8,94,80,51,29.38,29.29,3,0,6,0.00
2012-7-5,76.6,66.4,61.7,61.3,59.2,57.6,90,79,55,29.41,29.32,3,0,5,0.00
2012-7-6,91.6,70.7,58.1,60.5,58.1,52.9,97,69,29,29.44,29.38,5,1,7,0.00
2012-7-7,88.9,68.2,56.8,61.8,57.6,53.2,98,74,31,29.44,29.35,4,1,6,0.00
2012-7-8,81.3,62.8,0.0,62.3,56.6,52.5,98,82,43,29.44,29.35,4,0,6,0.00
2012-7-9,99.7,74.2,57.4,66.0,55.4,41.7,95,60,16,29.41,29.32,4,0,6,0.00
2012-7-10,100.2,74.9,59.7,67.6,60.0,54.8,98,67,26,29.35,29.26,5,1,8,0.00
2012-7-11,97.3,74.6,60.4,71.1,60.6,53.9,98,69,27,29.35,29.23,4,0,6,0.00
2012-7-12,64.9,64.2,63.7,62.9,62.3,61.8,95,93,92,29.32,29.29,4,0,6,0.00
2012-7-14,67.8,64.7,63.1,61.8,60.5,59.2,91,86,80,29.41,29.35,5,1,8,0.00
2012-7-15,84.9,68.9,61.5,59.9,57.6,52.3,90,71,34,29.38,29.32,4,1,6,0.00
2012-7-16,85.1,68.4,59.4,58.5,55.5,50.7,87,67,32,29.41,29.32,5,1,8,0.00
2012-7-17,86.9,68.9,59.4,58.8,55.2,50.3,95,65,31,29.44,29.35,5,0,8,0.00
2012-7-18,98.4,73.6,57.4,66.8,54.8,43.0,98,60,19,29.44,29.32,4,1,8,0.00
2012-7-19,97.9,81.3,0.0,64.3,55.0,46.5,93,46,18,29.44,29.38,4,1,7,0.00
2012-7-20,99.7,77.7,63.1,77.3,59.7,52.9,98,62,25,29.50,29.35,5,1,7,0.00
2012-7-21,96.8,74.4,60.8,69.5,60.7,55.5,98,69,27,29.44,29.32,4,0,6,0.00
2012-7-22,90.0,72.7,64.6,64.6,62.0,58.3,93,73,35,29.41,29.32,4,0,6,0.00
2012-7-23,89.6,71.7,61.2,65.3,61.7,57.5,97,74,35,29.44,29.38,4,0,7,0.00
2012-7-24,89.2,69.4,59.4,62.5,59.5,54.0,98,75,32,29.44,29.38,4,0,7,0.00
2012-7-25,90.9,70.0,58.8,62.0,58.0,52.8,98,70,30,29.47,29.38,4,1,6,0.00
2012-7-26,91.8,70.2,57.7,61.0,56.4,51.6,98,67,28,29.47,29.35,5,1,6,0.00
2012-7-27,90.5,68.4,57.4,60.8,57.0,51.6,98,72,29,29.47,29.38,5,1,8,0.00
2012-7-28,93.4,69.6,55.2,71.2,56.2,49.6,98,69,25,29.47,29.35,4,0,6,0.00
2012-7-29,79.3,63.6,57.0,61.1,59.1,56.5,98,87,50,29.44,29.35,4,0,6,0.00
2012-7-30,86.5,71.1,61.2,64.7,60.4,55.7,98,72,39,29.44,29.35,4,1,6,0.00
2012-7-31,88.7,71.2,0.0,66.7,61.8,58.1,98,75,38,29.50,29.38,4,1,6,0.00
2012-8-1,95.9,73.7,62.8,68.8,61.4,54.7,95,70,27,29.56,29.44,3,0,6,0.00
2012-8-2,89.1,71.2,61.0,65.2,60.6,54.1,98,73,32,29.47,29.38,4,1,9,0.00
2012-8-3,87.1,71.0,63.9,63.1,60.6,57.0,92,72,38,29.41,29.32,5,1,8,0.00
2012-8-4,87.3,70.1,62.8,62.5,61.2,57.1,97,76,39,29.41,29.32,4,0,7,0.00
2012-8-5,97.2,73.0,62.4,64.3,62.2,57.0,98,74,28,29.47,29.38,5,1,7,0.00
2012-8-6,100.0,76.2,63.3,68.4,63.1,55.9,98,69,25,29.47,29.38,4,0,7,0.00
2012-8-7,93.0,74.2,64.4,76.8,64.7,61.0,98,78,35,29.47,29.35,4,0,6,0.00
2012-8-26,77.9,67.7,63.3,60.8,59.6,57.3,89,76,50,29.47,0.00,3,0,4,0.00
2012-8-27,98.6,76.8,0.0,62.0,53.5,41.7,96,49,19,29.50,29.44,4,1,7,0.00
2012-8-28,98.1,80.5,63.5,63.2,55.4,49.3,81,47,20,29.47,29.35,4,1,7,0.00
2012-8-29,96.3,77.2,67.1,72.6,63.3,51.1,98,67,23,29.44,29.32,6,1,9,0.00
2012-8-30,95.7,77.1,67.3,68.0,63.0,45.9,98,70,20,29.41,29.32,5,0,8,0.00
2012-8-31,95.9,76.5,66.4,74.0,62.1,52.8,98,66,26,29.47,29.38,5,1,6,0.00
2012-9-1,93.9,74.8,60.4,67.3,52.6,39.4,97,53,18,29.50,29.44,5,1,6,0.00
2012-9-2,91.4,72.2,56.3,60.2,52.2,41.5,91,56,20,29.50,29.44,5,0,6,0.00
2012-9-3,92.3,73.6,60.1,66.1,58.5,49.3,97,65,29,29.56,29.47,4,0,6,0.00
2012-9-4,95.0,76.9,63.3,68.6,57.0,42.2,96,59,17,29.59,29.47,4,0,7,0.00
2012-9-5,93.9,77.5,67.8,65.7,57.9,42.7,84,57,22,29.59,29.50,5,0,7,0.00
2012-9-6,90.0,76.3,65.7,70.7,58.3,45.9,95,59,25,29.59,29.50,4,1,6,0.00
2012-9-7,87.3,74.0,64.0,70.1,59.5,44.7,98,65,33,29.65,29.53,5,1,8,0.00
2012-9-8,88.9,75.4,65.1,63.4,58.7,55.3,82,59,33,29.56,29.47,4,0,6,0.00
2012-9-9,98.4,77.6,65.7,67.8,62.2,57.9,90,63,31,29.53,29.44,5,1,10,0.00
2012-9-10,89.8,77.8,70.2,69.5,66.3,61.5,90,70,41,29.56,29.47,4,0,6,0.00
2012-9-11,84.2,73.6,68.2,71.0,67.4,65.3,97,82,60,29.62,29.47,3,0,5,0.00
2012-9-12,84.0,72.4,65.7,67.7,66.2,64.7,98,82,57,29.62,29.56,5,1,8,0.00
2012-9-13,87.3,74.9,64.0,69.8,65.5,62.5,98,75,49,29.65,29.56,4,0,6,0.00
2012-9-14,103.5,83.3,63.1,72.0,56.4,43.3,98,51,16,29.65,29.56,4,0,7,0.00
2012-9-15,103.3,86.7,72.3,53.1,44.9,40.0,50,25,15,29.65,29.56,5,1,8,0.00
2012-9-16,86.9,72.8,64.6,68.7,62.5,45.7,97,73,37,29.71,29.59,6,1,9,0.00
2012-9-17,82.6,71.6,63.0,65.0,62.1,57.0,98,75,44,29.68,29.56,4,1,6,0.00
2012-9-18,85.8,70.8,60.8,69.9,60.4,46.9,98,74,32,29.68,29.59,4,1,6,0.00
2012-9-19,86.2,71.8,59.9,66.9,60.4,54.5,98,72,35,29.62,29.53,4,0,6,0.00
2012-9-20,90.7,74.3,61.0,67.9,61.6,56.1,98,70,33,29.59,29.50,4,0,6,0.00
2012-9-21,92.1,75.4,63.3,73.2,64.3,56.1,98,73,31,29.59,29.47,4,0,6,0.00
2012-9-22,77.0,69.8,0.0,66.0,60.8,54.7,98,73,50,29.56,29.53,3,0,4,0.00
2012-9-23,96.3,78.7,66.0,66.8,57.2,45.3,90,53,24,29.62,29.53,5,0,8,0.00
2012-9-24,88.0,73.0,63.3,69.9,61.0,51.6,98,71,32,29.65,29.53,4,0,6,0.00
2012-9-25,80.2,67.9,61.2,63.8,60.5,57.5,98,80,48,29.59,29.50,5,0,6,0.00
2012-9-26,80.1,69.2,61.9,61.8,60.4,58.0,96,76,49,29.53,29.47,5,0,6,0.00
2012-9-27,82.8,69.3,60.1,65.0,62.5,59.5,98,82,49,29.56,29.47,4,0,5,0.00
2012-9-28,87.6,72.1,61.9,67.9,60.6,50.5,98,72,29,29.56,29.47,5,0,8,0.00
2012-9-29,90.3,73.6,61.2,64.7,58.1,48.3,96,62,29,29.62,29.53,4,0,6,0.00
2012-9-30,95.2,77.5,63.0,60.6,55.8,48.5,82,52,23,29.65,29.56,4,0,5,0.00
2012-10-1,98.8,79.4,63.5,66.6,57.4,47.7,97,55,21,29.59,29.50,4,0,5,0.00
2012-10-2,95.2,77.4,64.4,66.1,56.4,44.7,92,55,21,29.53,29.47,5,0,7,0.00
2012-10-3,82.6,67.2,61.3,69.6,62.9,55.8,98,88,45,29.68,29.53,3,0,6,0.00
2012-10-4,78.8,67.7,60.4,63.8,60.3,57.0,98,80,50,29.77,29.65,4,0,6,0.00
2012-10-5,78.8,67.6,61.2,62.7,59.8,56.7,98,78,50,29.71,29.56,4,0,6,0.00
2012-10-6,82.0,67.6,58.5,68.6,61.8,57.9,98,84,50,29.62,29.53,4,0,6,0.00
2012-10-7,79.9,68.3,60.6,66.9,62.6,60.1,98,84,53,29.59,29.53,5,0,7,0.00
2012-10-8,77.7,68.1,61.7,65.1,62.0,59.4,98,83,54,29.62,29.56,4,0,6,0.00
2012-10-9,79.2,68.3,60.6,63.1,59.8,55.5,97,76,47,29.62,29.56,5,0,7,0.00
2012-10-10,69.1,61.7,0.0,60.6,57.7,55.9,95,85,67,29.62,29.53,4,0,5,0.04
2012-10-11,71.4,60.4,55.0,58.4,54.8,49.5,98,84,50,29.59,29.50,4,0,8,0.24
2012-10-12,74.8,61.4,52.0,59.3,53.6,48.3,98,78,45,29.77,29.59,5,0,9,0.00
2012-10-13,76.3,63.9,52.7,62.6,55.5,52.2,98,77,46,29.83,29.68,5,1,6,0.00
2012-10-14,88.5,71.3,56.5,66.1,54.2,46.0,98,60,30,29.68,29.56,5,0,6,0.00
2012-10-15,90.0,73.7,62.1,63.1,50.9,42.9,97,49,21,29.59,29.50,4,0,6,0.00
2012-10-16,89.8,71.9,57.2,67.0,55.5,41.3,98,63,19,29.53,29.41,5,1,6,0.00
2012-10-17,93.7,76.1,60.1,61.4,49.0,38.3,95,48,17,29.50,29.38,4,0,6,0.00
2012-10-18,84.0,72.8,63.1,67.6,60.1,39.4,92,68,27,29.71,29.50,7,2,12,0.00
2012-10-19,79.2,67.6,60.8,68.9,63.1,60.1,98,87,61,29.65,29.53,5,1,8,0.00
2012-10-20,71.4,65.5,61.7,66.2,62.6,60.4,98,91,71,29.56,29.44,5,0,8,0.00
2012-10-21,76.8,65.5,60.6,71.1,60.9,57.1,98,87,53,29.56,29.47,5,0,8,0.08
2012-10-22,75.2,64.4,56.7,62.7,56.3,51.5,95,77,50,29.65,29.50,4,1,7,0.00
2012-10-23,72.9,61.3,54.5,65.5,53.1,45.3,98,77,43,29.65,29.56,4,0,7,0.04
2012-10-24,71.2,60.3,51.8,57.6,50.5,45.5,95,72,46,29.71,29.62,5,1,8,0.00
2012-10-25,75.4,62.2,50.2,52.2,46.4,39.9,84,60,31,29.71,29.59,4,0,6,0.00
2012-10-26,85.3,70.4,57.2,51.6,35.3,25.8,80,31,18,29.65,29.56,5,0,6,0.00
2012-10-27,86.4,70.8,57.7,54.8,33.3,23.8,78,26,16,29.59,29.50,5,1,6,0.00
2012-10-28,83.1,67.4,55.2,58.7,43.5,29.4,96,50,19,29.71,29.56,4,0,6,0.00
2012-10-29,81.0,65.3,54.1,53.0,42.4,35.0,83,45,26,29.80,29.71,4,0,6,0.00
2012-10-30,76.8,61.8,50.0,57.9,49.7,42.5,98,69,32,29.77,29.68,4,0,6,0.00
2012-10-31,71.6,61.3,55.2,59.3,55.8,49.5,98,84,48,29.83,29.74,4,0,6,0.00
2012-11-1,70.0,61.2,55.6,58.3,55.3,51.9,98,82,56,29.83,29.74,4,0,6,0.00
2012-11-2,70.9,61.9,54.9,56.0,53.6,50.4,97,76,49,29.83,29.74,5,1,6,0.00
2012-11-3,77.4,62.9,51.3,61.2,55.4,49.8,98,80,46,29.91,29.80,3,0,4,0.00
2012-11-4,87.6,70.0,51.6,68.8,45.2,30.1,98,53,16,29.97,29.88,4,0,5,0.00
2012-11-5,90.3,73.7,62.1,49.1,36.0,27.4,61,28,15,30.00,29.91,4,0,6,0.00
2012-11-6,81.0,66.0,57.2,59.0,48.8,37.8,98,58,28,30.03,29.94,4,0,6,0.00
2012-11-7,71.8,61.4,54.5,62.4,56.7,53.9,98,86,60,30.03,29.91,4,0,5,0.00
2012-11-8,72.0,61.1,54.9,64.6,57.6,54.3,98,89,54,30.03,29.85,4,0,6,0.20
2012-11-9,65.3,57.1,50.9,56.3,45.1,39.9,98,66,44,29.97,29.85,6,2,10,0.04
2012-11-10,63.1,53.4,45.9,45.0,38.3,26.9,83,59,35,30.15,29.91,6,2,13,0.00
2012-11-11,64.0,51.6,40.1,38.7,32.6,23.1,74,50,31,30.27,30.12,4,0,6,0.00
2012-11-12,71.2,56.0,42.1,34.9,26.5,19.0,57,34,17,30.24,30.09,4,0,5,0.00
2012-11-13,78.8,61.6,46.0,53.3,31.6,22.9,95,37,15,30.15,30.00,5,0,6,0.00
2012-11-14,77.4,61.4,0.0,53.8,43.2,33.3,98,58,22,30.09,30.00,4,0,5,0.00
2012-11-15,69.3,59.4,52.2,53.6,48.6,34.6,98,71,28,30.12,30.00,6,0,8,0.00
2012-11-16,73.4,62.7,54.7,58.2,50.3,35.8,93,69,28,30.15,30.03,6,0,8,0.00
2012-11-17,73.2,63.4,56.5,66.6,58.7,55.9,98,86,59,30.12,30.06,4,0,6,0.24
2012-11-18,71.2,60.4,51.8,65.0,55.8,50.3,98,86,64,30.21,30.09,5,1,8,0.04
2012-11-19,69.4,58.4,50.4,61.1,53.0,49.6,98,84,54,30.27,30.15,5,1,6,0.00
2012-11-20,69.8,57.4,49.1,60.6,51.9,48.4,98,84,59,30.18,30.06,4,0,6,0.00
2012-11-21,68.7,57.6,49.6,58.7,53.9,49.1,98,89,64,30.12,30.03,4,0,5,0.00
2012-11-22,69.3,58.6,52.0,62.7,55.1,51.4,98,89,64,30.15,30.06,3,0,6,0.00
2012-11-23,75.0,58.8,50.2,62.7,54.5,49.6,98,88,55,30.18,30.09,3,0,4,0.00
2012-11-24,81.0,61.4,46.9,64.9,50.6,39.5,98,74,31,30.12,29.94,4,0,6,0.00
2012-11-25,63.9,57.5,52.2,60.4,55.4,51.6,98,93,76,30.00,29.91,5,0,8,0.00
2012-11-26,64.4,57.0,50.4,56.2,53.0,49.6,98,87,67,30.12,30.00,4,0,6,0.00
2012-11-27,68.7,56.3,49.6,61.3,53.2,49.1,98,90,63,30.21,30.06,4,0,6,0.00
2012-11-28,61.5,57.9,55.4,55.9,54.3,52.1,98,88,72,30.24,30.15,4,0,5,0.00
2012-11-29,67.5,59.7,0.0,65.3,58.8,53.6,98,96,88,30.27,30.18,4,0,6,0.12
2012-11-30,65.1,62.0,60.1,64.4,61.4,59.5,98,98,98,30.21,30.09,4,0,6,0.20
2012-12-1,70.9,62.2,57.6,65.6,59.4,57.0,98,91,63,30.24,30.12,4,0,6,0.00
2012-12-2,70.5,61.6,57.9,62.9,58.7,55.9,98,91,64,30.21,30.09,3,0,4,0.00
2012-12-3,67.5,60.7,55.9,66.5,59.8,55.2,98,97,85,30.24,30.15,3,0,5,0.47
2012-12-4,71.6,60.5,53.8,60.1,57.3,53.2,98,90,61,30.30,30.18,4,0,5,0.04
2012-12-5,66.4,57.8,50.9,61.1,55.7,50.4,98,93,71,30.21,30.06,3,0,5,0.00
2012-12-6,70.3,59.4,52.9,57.7,55.8,52.3,98,89,61,30.09,29.94,4,0,5,0.00
2012-12-7,64.9,57.1,51.6,62.4,55.5,50.9,98,95,74,30.03,29.94,0,0,4,0.00
2012-12-8,65.7,56.8,50.7,62.4,54.2,50.2,98,92,68,30.06,29.97,4,0,6,0.00
2012-12-9,66.4,57.1,50.2,56.1,53.1,49.6,98,88,63,30.18,30.03,3,0,5,0.00
2012-12-10,71.6,57.3,47.1,62.4,47.0,37.7,98,73,32,30.18,30.09,3,0,5,0.00
2012-12-11,68.7,56.3,46.4,55.7,48.7,40.8,98,78,39,30.12,30.00,4,0,6,0.00
2012-12-12,66.7,58.1,0.0,54.8,52.2,48.7,98,80,60,30.06,29.91,8,1,9,0.00
2012-12-13,63.5,53.7,46.4,59.9,49.1,40.6,98,85,61,29.94,29.83,5,0,8,0.28
2012-12-14,62.2,51.0,43.7,54.1,41.9,29.2,98,74,40,30.09,29.83,4,0,6,0.12
2012-12-15,58.5,51.1,43.9,49.4,41.3,31.9,98,72,38,30.21,30.03,5,1,7,0.04
2012-12-16,62.1,54.2,49.5,53.2,48.7,41.7,98,83,53,30.27,30.18,5,0,8,0.00
2012-12-17,66.9,57.9,53.1,60.4,54.3,51.7,98,88,62,30.30,30.12,3,0,6,0.00
2012-12-18,62.6,53.8,45.1,60.7,45.5,21.8,98,77,37,30.12,29.97,8,1,11,0.20
2012-12-19,58.3,47.0,39.2,31.2,24.6,18.1,55,41,32,30.39,30.12,8,1,10,0.00
2012-12-20,64.0,49.3,37.0,35.7,25.1,17.0,58,40,24,30.36,30.24,4,0,6,0.00
2012-12-21,64.2,50.1,40.1,42.5,33.7,22.4,89,55,36,30.39,30.30,3,0,6,0.00
2012-12-22,55.2,48.2,0.0,48.7,44.6,39.3,97,85,77,30.36,17.72,0,0,0,0.00
2012-12-23,64.2,54.7,50.0,57.4,50.2,45.5,98,86,62,17.72,17.72,4,0,6,0.00
2012-12-24,67.3,55.4,49.6,64.7,53.2,49.1,98,93,69,17.72,17.72,4,0,6,0.63
2012-12-25,65.5,53.4,47.8,59.2,49.8,42.4,98,89,45,17.72,17.72,0,0,0,0.00
2012-12-26,62.2,51.9,44.1,58.9,47.8,43.5,98,87,57,17.72,17.72,7,1,11,0.16
2012-12-27,59.2,48.2,38.5,49.1,41.0,33.2,98,79,39,17.72,17.72,5,0,8,0.00
2012-12-28,61.7,50.5,40.6,44.3,34.5,26.3,89,57,29,17.72,17.72,4,0,6,0.00
2012-12-29,56.3,47.4,41.5,52.2,40.0,28.3,98,78,50,17.72,17.72,5,0,8,0.12
2012-12-30,58.8,45.3,38.5,53.9,41.4,35.1,98,88,46,17.72,17.72,8,0,13,0.08
2012-12-31,58.3,46.0,36.9,44.2,37.8,35.0,98,76,44,17.72,17.72,4,0,6,0.00
2013-1-1,62.6,49.9,41.2,40.9,33.0,20.7,82,55,33,17.72,17.72,4,0,6,0.00